Time;durP1;ratioP1;P1;durP2;ratioP2;P2;SDS_P1;SDS_P2;PMS_P1;PMS_P2;Temp;Humidity;BMP_temperature;BMP_pressure;BME280_temperature;BME280_humidity;BME280_pressure;Samples;Min_cycle;Max_cycle;Signal;HPM_P1;HPM_P2
2022/09/08 00:00:45;;;;;;;19.43;10.77;;;;;;;9.74;65.08;100605.98;1727091;83;21030;-73
2022/09/08 00:03:15;;;;;;;15.77;11.17;;;;;;;9.69;65.09;100602.50;1726355;83;21090;-72
2022/09/08 00:06:01;;;;;;;16.80;10.40;;;;;;;9.65;65.16;100597.72;1726763;83;21427;-73
2022/09/08 00:08:30;;;;;;;14.97;10.00;;;;;;;9.61;65.44;100593.24;1726455;83;21035;-72
2022/09/08 00:11:00;;;;;;;13.57;10.13;;;;;;;9.55;65.56;100594.77;1727114;83;21030;-74
2022/09/08 00:13:31;;;;;;;22.13;11.57;;;;;;;9.50;65.62;100585.15;1727104;83;21089;-72
2022/09/08 00:16:02;;;;;;;16.67;10.07;;;;;;;9.46;65.74;100590.50;1726499;83;21156;-72
2022/09/08 00:18:28;;;;;;;14.70;9.80;;;;;;;9.41;66.04;100590.69;1727271;83;21498;-73
2022/09/08 00:20:54;;;;;;;16.65;10.40;;;;;;;9.37;66.20;100592.87;1726952;83;21021;-73
2022/09/08 00:23:21;;;;;;;16.20;11.17;;;;;;;9.33;66.66;100600.37;1726476;83;21090;-73
2022/09/08 00:25:47;;;;;;;21.65;11.30;;;;;;;9.31;66.69;100592.25;1726872;83;21001;-73
2022/09/08 00:28:13;;;;;;;19.98;10.63;;;;;;;9.29;66.62;100592.92;1727233;83;21014;-73
2022/09/08 00:30:40;;;;;;;15.60;10.20;;;;;;;9.30;66.63;100594.56;1726833;83;21161;-72
2022/09/08 00:33:06;;;;;;;13.25;10.53;;;;;;;9.26;66.56;100587.42;1727207;83;21553;-73
2022/09/08 00:35:33;;;;;;;20.48;10.20;;;;;;;9.25;66.59;100595.09;1726688;83;21069;-72
2022/09/08 00:38:00;;;;;;;14.17;9.60;;;;;;;9.23;66.63;100594.92;1726993;83;21074;-74
2022/09/08 00:40:26;;;;;;;15.03;9.68;;;;;;;9.22;66.75;100589.30;1727047;83;21038;-74
2022/09/08 00:43:03;;;;;;;14.90;10.37;;;;;;;9.25;66.86;100589.78;1727241;83;21134;-74
2022/09/08 00:45:35;;;;;;;10.72;9.18;;;;;;;9.28;66.74;100592.58;1726929;83;21531;-73
2022/09/08 00:48:10;;;;;;;17.17;10.47;;;;;;;9.32;66.89;100589.89;1726947;83;21276;-73
2022/09/08 00:50:38;;;;;;;19.48;11.60;;;;;;;9.38;66.82;100589.70;1727316;83;21030;-73
2022/09/08 00:53:09;;;;;;;15.45;9.73;;;;;;;9.40;66.57;100588.55;1727107;83;21533;-73
2022/09/08 00:55:39;;;;;;;13.30;9.77;;;;;;;9.42;66.60;100581.22;1726359;83;21046;-73
2022/09/08 00:58:07;;;;;;;12.20;10.80;;;;;;;9.50;66.43;100585.15;1726891;83;21014;-72
2022/09/08 01:00:39;;;;;;;14.37;10.43;;;;;;;9.55;66.35;100574.81;1726722;83;21006;-73
2022/09/08 01:03:10;;;;;;;12.03;10.70;;;;;;;9.63;66.28;100569.94;1726713;83;21110;-72
2022/09/08 01:06:16;;;;;;;17.90;11.03;;;;;;;9.68;66.20;100567.59;1726844;83;20999;-73
2022/09/08 01:14:46;;;;;;;12.67;9.90;;;;;;;9.83;65.92;100574.78;1726793;83;21003;-73
2022/09/08 01:17:16;;;;;;;12.98;10.53;;;;;;;9.85;65.94;100572.30;1726909;83;21057;-72
2022/09/08 01:19:46;;;;;;;21.47;11.43;;;;;;;9.86;65.79;100567.78;1727041;83;21066;-73
2022/09/08 01:23:03;;;;;;;12.67;10.17;;;;;;;9.89;65.81;100564.78;1726737;83;21114;-73
2022/09/08 01:25:48;;;;;;;15.73;9.93;;;;;;;9.91;65.84;100559.59;1727252;83;20971;-73
2022/09/08 01:28:29;;;;;;;13.40;10.33;;;;;;;9.94;65.91;100569.89;1726961;83;21759;-73
2022/09/08 01:30:56;;;;;;;13.00;8.83;;;;;;;9.98;65.87;100562.34;1726975;83;21117;-73
2022/09/08 01:33:22;;;;;;;13.35;9.80;;;;;;;10.05;65.87;100562.48;1727055;83;20979;-73
2022/09/08 01:35:48;;;;;;;;;;;;;;;10.10;65.65;100558.78;1729379;83;21122;-73
2022/09/08 01:38:14;;;;;;;11.83;9.43;;;;;;;10.14;65.57;100562.22;1726879;83;20125;-73
2022/09/08 01:40:41;;;;;;;11.80;9.70;;;;;;;10.13;65.44;100565.06;1726634;83;20994;-74
2022/09/08 01:43:08;;;;;;;13.28;9.58;;;;;;;10.14;65.36;100564.06;1726800;83;21054;-72
2022/09/08 01:45:40;;;;;;;9.67;8.53;;;;;;;10.16;65.18;100569.22;1726659;83;21078;-72
2022/09/08 01:48:08;;;;;;;11.83;9.57;;;;;;;10.14;65.20;100572.05;1727211;83;21062;-72
2022/09/08 01:50:34;;;;;;;14.93;10.77;;;;;;;10.07;65.27;100573.77;1727213;83;21058;-73
2022/09/08 01:53:51;;;;;;;17.07;9.80;;;;;;;10.02;65.67;100569.48;1773115;79;22824;-73
2022/09/08 01:56:17;;;;;;;14.93;10.40;;;;;;;9.93;65.84;100575.39;1728456;83;21085;-73
2022/09/08 01:58:45;;;;;;;21.45;10.55;;;;;;;9.89;65.84;100569.59;1722038;83;21114;-74
2022/09/08 02:01:11;;;;;;;15.13;11.30;;;;;;;9.88;65.50;100567.92;1721551;82;20983;-73
2022/09/08 02:03:38;;;;;;;10.27;9.13;;;;;;;9.89;65.39;100568.77;1721848;83;21591;-73
2022/09/08 02:06:04;;;;;;;12.88;9.50;;;;;;;9.91;65.54;100574.23;1722068;83;21113;-73
2022/09/08 02:08:30;;;;;;;11.97;9.65;;;;;;;9.94;65.56;100572.56;1717047;82;21538;-74
2022/09/08 02:11:00;;;;;;;12.60;9.50;;;;;;;9.94;65.49;100563.23;1696809;84;21110;-73
2022/09/08 02:13:27;;;;;;;11.87;9.40;;;;;;;9.96;65.56;100564.88;1702506;84;21002;-73
2022/09/08 02:16:03;;;;;;;13.10;9.90;;;;;;;9.96;65.92;100560.88;1706785;84;21125;-72
2022/09/08 02:18:31;;;;;;;13.60;10.63;;;;;;;9.93;65.69;100560.23;1706818;84;20987;-74
2022/09/08 02:21:12;;;;;;;13.70;8.97;;;;;;;9.85;65.63;100560.31;1706638;83;21097;-74
2022/09/08 02:23:41;;;;;;;11.67;8.77;;;;;;;9.80;65.92;100555.20;1707354;83;21085;-74
2022/09/08 02:26:22;;;;;;;13.20;9.90;;;;;;;9.74;66.15;100558.06;1707172;83;21050;-74
2022/09/08 02:28:51;;;;;;;13.57;9.17;;;;;;;9.65;66.45;100549.81;1706905;82;20970;-74
2022/09/08 02:31:18;;;;;;;14.97;10.20;;;;;;;9.57;66.75;100553.36;1707068;84;21038;-73
2022/09/08 02:33:45;;;;;;;13.70;9.50;;;;;;;9.53;66.95;100557.34;1706869;83;21529;-74
2022/09/08 02:36:11;;;;;;;13.43;9.60;;;;;;;9.48;67.19;100551.75;1707224;83;21097;-74
2022/09/08 02:38:37;;;;;;;;;;;;;;;9.43;67.44;100554.92;1709469;84;21026;-73
2022/09/08 02:41:06;;;;;;;11.80;9.67;;;;;;;9.37;67.65;100549.48;1706750;82;20148;-73
2022/09/08 02:43:34;;;;;;;14.63;9.47;;;;;;;9.24;67.82;100550.88;1707123;84;21061;-74
2022/09/08 02:46:09;;;;;;;11.27;10.03;;;;;;;9.18;68.06;100562.21;1705344;82;21104;-73
2022/09/08 02:48:37;;;;;;;13.40;10.73;;;;;;;9.13;68.30;100557.91;1685189;83;21490;-74
2022/09/08 02:51:06;;;;;;;11.45;10.25;;;;;;;9.07;68.51;100563.92;1730568;83;21579;-73
2022/09/08 02:53:33;;;;;;;12.07;10.00;;;;;;;9.03;68.70;100567.42;1711658;82;21589;-74
2022/09/08 02:56:01;;;;;;;12.98;10.68;;;;;;;9.00;68.76;100566.43;1700279;84;21046;-73
2022/09/08 02:58:27;;;;;;;10.70;9.13;;;;;;;8.99;68.80;100562.13;1736995;82;21010;-73
2022/09/08 03:00:55;;;;;;;11.93;9.50;;;;;;;9.00;69.07;100566.94;1729419;82;21617;-73
2022/09/08 03:03:22;;;;;;;13.97;9.27;;;;;;;8.99;69.04;100571.44;1714705;84;21006;-73
2022/09/08 03:05:50;;;;;;;16.90;10.00;;;;;;;8.96;69.09;100572.59;1729067;80;20997;-73
2022/09/08 03:08:19;;;;;;;14.60;9.20;;;;;;;8.93;69.10;100568.14;1731025;82;21053;-73
2022/09/08 03:10:48;;;;;;;16.93;9.23;;;;;;;8.89;69.29;100570.31;1701179;84;21072;-72
2022/09/08 03:13:13;;;;;;;13.43;9.50;;;;;;;8.88;69.55;100568.64;1700937;83;21080;-72
2022/09/08 03:15:41;;;;;;;15.10;9.43;;;;;;;8.86;69.62;100568.50;1699932;84;21087;-73
2022/09/08 03:18:07;;;;;;;13.93;10.80;;;;;;;8.85;69.74;100569.48;1700014;84;21052;-72
2022/09/08 03:20:36;;;;;;;13.00;10.03;;;;;;;8.86;70.07;100569.83;1700762;82;21018;-71
2022/09/08 03:23:03;;;;;;;15.40;10.70;;;;;;;8.93;70.29;100577.45;1701259;84;21000;-73
2022/09/08 03:25:35;;;;;;;11.60;9.30;;;;;;;8.98;70.26;100576.41;1701633;84;21039;-73
2022/09/08 03:28:04;;;;;;;13.93;10.50;;;;;;;9.02;70.10;100576.39;1701423;84;21015;-72
2022/09/08 03:30:30;;;;;;;14.10;9.63;;;;;;;9.03;70.24;100583.38;1701003;84;20972;-72
2022/09/08 03:32:56;;;;;;;13.53;9.98;;;;;;;9.05;70.13;100585.36;1700697;84;21165;-72
2022/09/08 03:35:22;;;;;;;14.10;11.28;;;;;;;9.04;69.97;100586.38;1700304;84;21032;-72
2022/09/08 03:37:49;;;;;;;12.82;9.53;;;;;;;9.07;69.96;100584.69;1721297;82;21038;-72
2022/09/08 03:40:18;;;;;;;19.43;11.03;;;;;;;9.08;69.80;100582.84;1730745;82;20994;-72
2022/09/08 03:42:44;;;;;;;15.07;9.90;;;;;;;9.05;69.86;100582.70;1752790;82;21053;-72
2022/09/08 03:45:15;;;;;;;13.08;9.15;;;;;;;9.09;69.99;100581.35;1752663;82;21022;-73
2022/09/08 03:47:42;;;;;;;12.70;10.10;;;;;;;9.15;70.19;100580.69;1752555;82;21025;-72
2022/09/08 03:50:11;;;;;;;18.48;10.85;;;;;;;9.31;70.33;100577.61;1730016;82;21566;-71
2022/09/08 03:52:37;;;;;;;18.00;11.40;;;;;;;9.63;69.89;100572.60;1725850;83;21077;-73
2022/09/08 03:55:05;;;;;;;18.25;11.12;;;;;;;10.08;69.00;100573.60;1726813;83;21498;-72
2022/09/08 03:57:32;;;;;;;11.90;9.43;;;;;;;10.59;68.01;100575.66;1726655;82;21634;-73
2022/09/08 03:59:59;;;;;;;9.93;8.93;;;;;;;11.13;65.78;100567.86;1726853;83;21062;-73
2022/09/08 04:02:27;;;;;;;12.68;9.38;;;;;;;11.68;63.49;100564.29;1726558;82;21018;-73
2022/09/08 04:04:57;;;;;;;13.90;10.45;;;;;;;12.26;61.54;100560.19;1690972;84;21079;-74
2022/09/08 04:07:28;;;;;;;16.73;9.88;;;;;;;12.85;60.12;100557.61;1664974;86;21081;-74
2022/09/08 04:09:57;;;;;;;15.00;10.95;;;;;;;13.42;57.26;100562.29;1723995;83;21048;-74
2022/09/08 04:12:25;;;;;;;15.15;10.30;;;;;;;13.89;55.61;100550.33;1721507;83;21732;-73
2022/09/08 04:14:51;;;;;;;14.13;10.03;;;;;;;14.30;54.44;100546.11;1704161;84;20999;-73
2022/09/08 04:17:21;;;;;;;13.00;9.18;;;;;;;14.78;53.13;100550.38;1715899;82;21030;-73
2022/09/08 04:19:50;;;;;;;12.18;9.60;;;;;;;15.32;51.97;100553.16;1726786;82;21045;-73
2022/09/08 04:22:18;;;;;;;12.05;9.55;;;;;;;15.91;50.27;100555.19;1726979;82;21075;-73
2022/09/08 04:24:45;;;;;;;11.57;8.73;;;;;;;16.46;48.50;100549.16;1726755;82;21465;-74
2022/09/08 04:27:12;;;;;;;16.55;9.43;;;;;;;17.66;45.53;100556.33;1727011;82;21018;-74
2022/09/08 04:29:38;;;;;;;13.43;9.33;;;;;;;17.66;45.53;100556.33;1726551;82;21070;-73
2022/09/08 04:32:07;;;;;;;12.43;9.15;;;;;;;18.26;44.04;100554.06;1726538;83;21039;-77
2022/09/08 04:34:36;;;;;;;14.85;9.38;;;;;;;18.69;43.03;100562.33;1672451;85;21042;-74
2022/09/08 04:37:05;;;;;;;11.85;10.03;;;;;;;18.99;41.80;100558.13;1726494;82;21009;-73
2022/09/08 04:39:33;;;;;;;12.73;8.95;;;;;;;19.31;41.41;100556.84;1741799;82;21011;-74
2022/09/08 04:41:59;;;;;;;12.05;8.63;;;;;;;19.58;40.85;100560.61;1741858;82;21480;-73
2022/09/08 04:44:25;;;;;;;17.00;9.20;;;;;;;19.89;40.15;100560.36;1741869;82;20971;-73
2022/09/08 04:46:52;;;;;;;14.10;9.03;;;;;;;20.25;39.28;100557.72;1741556;82;21173;-74
2022/09/08 04:49:18;;;;;;;;;;;;;;;20.59;38.85;100550.35;1731964;82;21074;-73
2022/09/08 04:51:46;;;;;;;23.18;9.75;;;;;;;20.85;38.55;100553.95;1718408;83;20432;-74
2022/09/08 04:54:12;;;;;;;21.90;10.75;;;;;;;20.99;37.91;100551.98;1705431;84;21050;-74
2022/09/08 04:56:37;;;;;;;;;;;;;;;21.18;37.51;100556.53;1701436;84;21081;-74
2022/09/08 04:59:04;;;;;;;14.20;9.37;;;;;;;21.39;36.88;100558.13;1698396;84;20430;-73
2022/09/08 05:01:34;;;;;;;15.35;8.63;;;;;;;21.48;37.11;100549.84;1707932;83;21110;-75
2022/09/08 05:04:02;;;;;;;12.80;8.95;;;;;;;21.64;37.07;100555.41;1708158;84;21081;-74
2022/09/08 05:06:32;;;;;;;13.55;9.10;;;;;;;21.89;36.87;100551.59;1708753;84;21051;-73
2022/09/08 05:09:00;;;;;;;16.85;8.78;;;;;;;22.21;36.05;100548.55;1708654;84;21150;-74
2022/09/08 05:11:30;;;;;;;10.95;8.15;;;;;;;22.49;35.65;100546.05;1709061;84;21062;-74
2022/09/08 05:13:58;;;;;;;13.38;8.40;;;;;;;22.75;35.49;100548.38;1708509;84;21026;-74
2022/09/08 05:16:27;;;;;;;12.90;8.28;;;;;;;22.87;35.48;100545.45;1708657;84;21007;-74
2022/09/08 05:18:58;;;;;;;10.88;8.25;;;;;;;22.89;34.06;100541.92;1708312;84;21066;-74
2022/09/08 05:25:23;;;;;;;13.55;10.45;;;;;;;22.34;34.45;100546.80;1708292;84;21141;-74
2022/09/08 05:27:49;;;;;;;;;;;;;;;21.85;35.21;100553.70;1701989;84;21130;-74
2022/09/08 05:30:15;;;;;;;14.95;9.28;;;;;;;21.67;35.22;100546.77;1698573;84;20139;-75
2022/09/08 05:32:41;;;;;;;9.33;8.40;;;;;;;21.46;36.05;100552.55;1708076;84;21666;-74
2022/09/08 05:35:09;;;;;;;13.50;9.35;;;;;;;21.52;35.90;100556.39;1707978;84;21090;-74
2022/09/08 05:37:35;;;;;;;15.72;9.85;;;;;;;21.68;35.64;100556.02;1707968;83;21059;-75
2022/09/08 05:40:01;;;;;;;;;;;;;;;21.73;34.89;100549.80;1710841;84;21958;-73
2022/09/08 05:42:27;;;;;;;11.43;9.28;;;;;;;21.67;35.05;100554.91;1698749;84;20195;-73
2022/09/08 05:44:53;;;;;;;;;;;;;;;21.66;34.52;100554.62;1710558;84;21003;-74
2022/09/08 05:47:20;;;;;;;18.97;9.50;;;;;;;21.77;34.61;100546.86;1680202;85;20124;-72
2022/09/08 05:49:46;;;;;;;14.10;8.90;;;;;;;21.83;33.88;100555.34;1698348;84;21534;-73
2022/09/08 05:52:12;;;;;;;;;;;;;;;21.66;33.58;100554.10;1683993;84;21107;-73
2022/09/08 05:54:38;;;;;;;12.85;8.90;;;;;;;21.47;34.03;100556.88;1686749;85;20173;-73
2022/09/08 05:57:05;;;;;;;;;;;;;;;21.41;33.83;100555.16;1748663;82;21026;-74
2022/09/08 05:59:31;;;;;;;9.63;6.95;;;;;;;21.38;33.70;100554.59;1746183;82;20147;-77
2022/09/08 06:06:10;;;;;;;8.93;6.90;;;;;;;21.68;32.94;100556.02;1745126;82;21029;-76
2022/09/08 06:08:38;;;;;;;9.00;6.85;;;;;;;21.75;32.81;100557.14;1744541;82;21066;-78
2022/09/08 06:11:06;;;;;;;10.85;7.58;;;;;;;21.99;32.65;100556.28;1745742;82;21035;-83
2022/09/08 06:13:34;;;;;;;8.45;6.47;;;;;;;21.94;32.21;100562.49;1746630;82;21550;-82
2022/09/08 06:16:13;;;;;;;12.20;6.97;;;;;;;21.89;32.53;100566.52;1745772;82;21538;-79
2022/09/08 06:18:44;;;;;;;12.30;6.55;;;;;;;22.06;32.14;100569.09;1706952;84;21614;-81
2022/09/08 06:21:18;;;;;;;9.08;7.40;;;;;;;21.94;32.21;100569.80;1698442;84;21113;-81
2022/09/08 06:23:52;;;;;;;14.18;7.58;;;;;;;21.80;32.60;100570.77;1682205;84;21003;-83
2022/09/08 06:26:45;;;;;;;8.48;6.65;;;;;;;21.82;33.38;100567.80;1698600;84;21042;-82
2022/09/08 06:29:29;;;;;;;6.92;6.25;;;;;;;22.02;32.39;100567.14;1708280;84;21086;-76
2022/09/08 06:32:15;;;;;;;8.00;5.78;;;;;;;21.76;32.67;100571.01;1707870;84;21114;-81
2022/09/08 06:35:03;;;;;;;7.67;6.53;;;;;;;21.41;32.85;100572.78;1708756;84;21134;-80
2022/09/08 06:37:34;;;;;;;6.20;5.67;;;;;;;21.09;33.10;100579.73;1707953;84;21026;-79
2022/09/08 06:40:13;;;;;;;7.47;6.53;;;;;;;20.95;33.71;100583.36;1708486;84;21118;-81
2022/09/08 06:43:03;;;;;;;5.55;5.03;;;;;;;20.97;33.74;100585.28;1708204;84;21039;-85
2022/09/08 06:45:52;;;;;;;10.35;6.85;;;;;;;20.86;33.79;100586.22;1708126;84;21117;-80
2022/09/08 06:48:34;;;;;;;10.72;6.95;;;;;;;20.35;34.79;100596.30;1708346;83;21050;-74
2022/09/08 06:51:36;;;;;;;11.00;6.60;;;;;;;19.65;36.06;100606.44;1708402;84;21026;-75
2022/09/08 06:54:10;;;;;;;12.40;7.10;;;;;;;19.09;37.24;100595.88;1708222;84;21089;-73
2022/09/08 06:56:55;;;;;;;8.05;7.22;;;;;;;18.66;38.72;100597.34;1707570;83;21530;-74
2022/09/08 07:00:02;;;;;;;8.53;7.42;;;;;;;18.45;39.14;100595.25;1708255;84;21154;-75
2022/09/08 07:02:46;;;;;;;8.80;6.50;;;;;;;18.23;39.87;100600.38;1708282;84;21069;-74
2022/09/08 07:05:56;;;;;;;7.53;6.35;;;;;;;18.15;40.32;100606.13;1708056;84;21098;-74
2022/09/08 07:09:02;;;;;;;9.38;7.70;;;;;;;18.15;40.37;100608.30;1708711;84;21021;-75
2022/09/08 07:11:46;;;;;;;9.98;6.40;;;;;;;18.11;40.32;100608.47;1708778;84;21099;-75
2022/09/08 07:14:44;;;;;;;9.38;7.20;;;;;;;18.03;38.55;100610.16;1708269;84;21223;-73
2022/09/08 07:17:49;;;;;;;11.35;7.50;;;;;;;17.99;39.13;100602.21;1697626;83;21035;-75
2022/09/08 07:20:16;;;;;;;9.85;5.65;;;;;;;18.08;39.07;100609.77;1708570;84;21110;-77
2022/09/08 07:23:03;;;;;;;6.00;5.30;;;;;;;18.06;39.03;100614.56;1708782;84;21274;-73
2022/09/08 07:25:40;;;;;;;6.70;6.10;;;;;;;18.02;38.87;100613.36;1708282;84;21090;-75
2022/09/08 07:28:24;;;;;;;;;;;;;;;18.01;39.08;100606.34;1710763;84;21098;-76
2022/09/08 07:30:56;;;;;;;5.50;4.75;;;;;;;18.04;39.27;100609.09;1699103;84;20103;-75
2022/09/08 07:33:37;;;;;;;5.45;4.70;;;;;;;17.96;39.66;100608.09;1708785;84;21066;-74
2022/09/08 07:36:28;;;;;;;5.28;4.78;;;;;;;17.94;40.38;100613.70;1707770;84;21051;-75
2022/09/08 07:38:57;;;;;;;5.40;4.83;;;;;;;17.93;40.73;100608.53;1709021;84;21110;-76
2022/09/08 07:41:41;;;;;;;7.45;4.15;;;;;;;17.98;39.50;100616.23;1708710;84;21595;-74
2022/09/08 07:44:14;;;;;;;4.58;4.17;;;;;;;18.05;38.67;100614.80;1708830;83;21062;-76
2022/09/08 07:46:55;;;;;;;4.65;4.08;;;;;;;18.07;37.89;100616.20;1708778;84;21043;-74
2022/09/08 07:49:51;;;;;;;6.67;3.55;;;;;;;18.13;37.35;100616.33;1708253;84;21103;-77
2022/09/08 07:52:35;;;;;;;10.78;3.85;;;;;;;18.16;36.85;100614.00;1708411;84;21131;-75
2022/09/08 07:55:34;;;;;;;7.25;3.55;;;;;;;18.21;36.75;100618.15;1708696;84;21149;-76
2022/09/08 07:58:39;;;;;;;6.08;3.08;;;;;;;18.36;35.62;100619.59;1708574;84;21039;-74
2022/09/08 08:01:48;;;;;;;5.03;4.58;;;;;;;18.49;35.26;100622.06;1708714;84;21051;-75
2022/09/08 08:04:41;;;;;;;10.43;5.33;;;;;;;18.58;33.86;100621.20;1708725;84;21126;-74
2022/09/08 08:07:12;;;;;;;6.25;4.78;;;;;;;18.57;34.12;100618.19;1708945;84;21555;-75
2022/09/08 08:10:18;;;;;;;5.30;4.80;;;;;;;18.60;34.07;100615.03;1708788;84;21095;-74
2022/09/08 08:12:59;;;;;;;6.67;4.45;;;;;;;18.71;33.79;100612.86;1708667;84;21121;-76
2022/09/08 08:15:56;;;;;;;10.15;6.00;;;;;;;18.79;33.28;100608.44;1708775;84;21086;-78
2022/09/08 08:18:33;;;;;;;6.12;5.50;;;;;;;18.86;33.85;100608.36;1708516;83;21535;-78
2022/09/08 08:21:34;;;;;;;9.13;5.83;;;;;;;18.90;33.03;100608.72;1708741;84;21517;-81
2022/09/08 08:24:21;;;;;;;3.42;3.12;;;;;;;18.88;33.06;100601.38;1708322;84;21042;-76
2022/09/08 08:26:56;;;;;;;6.47;3.20;;;;;;;18.88;31.54;100603.55;1708914;84;21054;-74
2022/09/08 08:29:58;;;;;;;6.35;3.42;;;;;;;18.90;31.81;100604.66;1708867;84;21058;-74
2022/09/08 08:32:37;;;;;;;6.62;3.33;;;;;;;18.92;32.12;100606.59;1708766;84;20996;-74
2022/09/08 08:35:38;;;;;;;2.52;2.02;;;;;;;18.98;31.77;100601.59;1709026;84;21516;-72
2022/09/08 08:38:05;;;;;;;2.67;2.33;;;;;;;19.02;31.42;100604.09;1708641;84;21043;-74
2022/09/08 08:40:59;;;;;;;4.40;1.70;;;;;;;19.06;31.33;100603.40;1708838;84;20968;-75
2022/09/08 08:43:42;;;;;;;2.60;1.75;;;;;;;19.10;31.58;100607.80;1708834;84;21026;-74
2022/09/08 08:46:45;;;;;;;5.55;1.57;;;;;;;19.15;31.26;100610.59;1708454;84;21070;-78
2022/09/08 08:49:58;;;;;;;3.15;1.82;;;;;;;19.13;31.30;100603.79;1708255;84;21015;-78
2022/09/08 08:52:59;;;;;;;4.58;3.90;;;;;;;19.10;31.15;100599.70;1708048;84;20995;-82
2022/09/08 08:55:48;;;;;;;7.97;5.45;;;;;;;19.12;31.85;100600.78;1708910;84;21057;-92
2022/09/08 08:58:56;;;;;;;11.68;5.72;;;;;;;19.15;32.02;100599.78;1708996;84;21007;-83
2022/09/08 09:02:04;;;;;;;8.08;5.00;;;;;;;19.20;32.17;100601.78;1708661;84;20967;-84
2022/09/08 09:04:45;;;;;;;5.22;3.62;;;;;;;19.23;32.22;100600.78;1695990;83;21071;-78
2022/09/08 09:07:42;;;;;;;3.40;2.08;;;;;;;19.27;31.22;100594.37;1709029;84;21031;-83
2022/09/08 09:10:51;;;;;;;6.80;1.87;;;;;;;19.33;30.69;100592.05;1709129;84;21007;-75
2022/09/08 09:13:32;;;;;;;0.98;0.53;;;;;;;19.41;30.10;100596.25;1708630;84;21494;-79
2022/09/08 09:16:20;;;;;;;0.98;0.30;;;;;;;19.44;28.55;100595.23;1688184;84;21066;-76
2022/09/08 09:19:15;;;;;;;1.05;0.90;;;;;;;19.41;28.59;100596.25;1709149;84;21062;-80
2022/09/08 09:21:58;;;;;;;1.67;0.28;;;;;;;19.37;27.80;100589.14;1708895;84;21011;-77
2022/09/08 09:25:15;;;;;;;0.93;0.10;;;;;;;19.36;28.29;100587.49;1708976;83;21007;-78
2022/09/08 09:27:51;;;;;;;3.25;0.50;;;;;;;19.42;27.95;100583.84;1709066;84;21042;-76
2022/09/08 09:30:24;;;;;;;1.40;1.22;;;;;;;19.43;27.80;100582.77;1708281;84;21019;-76
2022/09/08 09:33:22;;;;;;;3.17;0.50;;;;;;;19.46;28.21;100589.59;1689785;83;21050;-76
2022/09/08 09:36:00;;;;;;;0.90;0.33;;;;;;;19.51;27.96;100583.45;1708109;84;21133;-77
2022/09/08 09:38:57;;;;;;;3.80;0.57;;;;;;;19.49;27.59;100595.85;1701123;84;21084;-73
2022/09/08 09:41:41;;;;;;;1.10;0.90;;;;;;;19.49;27.58;100584.23;1708597;83;21002;-75
2022/09/08 09:44:25;;;;;;;5.55;3.70;;;;;;;19.50;27.51;100593.99;1707994;84;21254;-78
2022/09/08 09:47:30;;;;;;;5.20;3.58;;;;;;;19.48;27.95;100595.58;1709070;84;21070;-76
2022/09/08 09:50:08;;;;;;;6.62;5.08;;;;;;;19.46;28.16;100603.11;1662591;83;21083;-77
2022/09/08 09:53:16;;;;;;;7.65;6.53;;;;;;;19.43;28.41;100599.53;1695555;84;21528;-76
2022/09/08 09:56:25;;;;;;;11.15;7.33;;;;;;;19.41;28.66;100601.66;1699625;84;21081;-79
2022/09/08 09:59:17;;;;;;;10.68;7.00;;;;;;;19.38;28.68;100603.47;1710699;84;21027;-77
2022/09/08 10:02:23;;;;;;;12.98;8.03;;;;;;;19.37;28.68;100603.20;1709926;84;21095;-78
2022/09/08 10:05:18;;;;;;;9.10;6.03;;;;;;;19.43;28.69;100605.75;1659802;86;21259;-76
2022/09/08 10:08:08;;;;;;;5.00;3.67;;;;;;;19.19;28.07;100556.38;1712058;84;21106;-78
2022/09/08 10:11:02;;;;;;;7.37;3.42;;;;;;;19.50;28.31;100610.22;1737637;82;21053;-76
2022/09/08 10:14:10;;;;;;;10.45;6.80;;;;;;;19.58;28.29;100620.63;1746598;82;21075;-76
2022/09/08 10:17:03;;;;;;;5.80;4.37;;;;;;;19.69;28.37;100615.70;1746669;82;20995;-76
2022/09/08 10:20:16;;;;;;;7.00;2.98;;;;;;;19.70;27.44;100615.98;1746943;82;20995;-80
2022/09/08 10:22:57;;;;;;;3.10;2.75;;;;;;;19.65;27.63;100621.31;1747054;82;21635;-77
2022/09/08 10:25:33;;;;;;;6.15;4.80;;;;;;;19.65;27.67;100615.37;1746557;82;21110;-79
2022/09/08 10:28:16;;;;;;;7.97;5.00;;;;;;;19.62;27.52;100617.19;1744092;82;21058;-77
2022/09/08 10:31:10;;;;;;;7.05;4.22;;;;;;;19.54;27.57;100616.23;1746328;82;21024;-80
2022/09/08 10:34:29;;;;;;;11.18;8.65;;;;;;;19.48;27.67;100613.66;1746836;82;21578;-78
2022/09/08 10:37:36;;;;;;;4.28;3.17;;;;;;;19.52;28.09;100608.90;1746948;82;21118;-78
2022/09/08 10:40:42;;;;;;;4.17;2.30;;;;;;;19.59;28.13;100617.69;1705382;84;21033;-78
2022/09/08 10:43:27;;;;;;;3.67;2.13;;;;;;;19.57;27.94;100616.27;1723178;82;21057;-79
2022/09/08 10:46:36;;;;;;;5.28;4.80;;;;;;;19.54;27.97;100616.77;1746707;82;21042;-75
2022/09/08 10:49:16;;;;;;;4.08;1.52;;;;;;;19.56;27.73;100616.81;1746989;82;21022;-78
2022/09/08 10:52:00;;;;;;;5.28;1.82;;;;;;;19.52;27.76;100622.42;1745990;82;21050;-78
2022/09/08 10:54:54;;;;;;;2.15;0.75;;;;;;;19.52;27.41;100622.42;1746430;82;21848;-75
2022/09/08 10:57:53;;;;;;;2.45;1.22;;;;;;;19.42;27.74;100606.83;1746278;82;20995;-77
2022/09/08 11:00:22;;;;;;;4.17;3.77;;;;;;;19.46;27.92;100622.03;1746797;82;20994;-77
2022/09/08 11:03:17;;;;;;;2.12;1.20;;;;;;;19.50;28.02;100612.38;1747127;82;21010;-79
2022/09/08 11:05:52;;;;;;;3.75;1.35;;;;;;;19.52;27.87;100606.20;1746735;82;21581;-79
2022/09/08 11:09:07;;;;;;;1.55;0.70;;;;;;;19.57;27.93;100603.59;1746897;82;21034;-76
2022/09/08 11:12:17;;;;;;;4.12;1.07;;;;;;;19.64;27.93;100605.59;1747008;82;21593;-76
2022/09/08 11:15:10;;;;;;;2.72;1.07;;;;;;;19.70;28.01;100604.34;1677059;85;21088;-77
2022/09/08 11:17:46;;;;;;;2.60;1.17;;;;;;;19.73;27.86;100599.31;1745985;82;21007;-79
2022/09/08 11:20:36;;;;;;;2.45;0.93;;;;;;;19.70;26.91;100602.45;1746694;82;21030;-78
2022/09/08 11:23:43;;;;;;;2.02;0.70;;;;;;;19.63;27.03;100599.92;1746824;82;21028;-76
2022/09/08 11:26:48;;;;;;;4.20;0.90;;;;;;;19.66;27.22;100589.14;1746776;82;21494;-77
2022/09/08 11:29:17;;;;;;;3.30;0.90;;;;;;;19.71;27.11;100596.00;1699628;82;20975;-75
2022/09/08 11:32:24;;;;;;;3.83;1.00;;;;;;;19.71;27.20;100587.08;1699356;84;21162;-77
2022/09/08 11:35:18;;;;;;;1.75;0.88;;;;;;;19.67;27.26;100593.50;1648244;87;21574;-81
2022/09/08 11:38:10;;;;;;;3.00;0.65;;;;;;;19.70;27.36;100601.11;1642381;86;21022;-75
2022/09/08 11:41:05;;;;;;;4.35;1.07;;;;;;;19.74;27.01;100594.71;1693051;83;21023;-76
2022/09/08 11:43:56;;;;;;;1.10;0.60;;;;;;;19.72;27.13;100599.52;1699254;84;21147;-76
2022/09/08 11:46:42;;;;;;;1.52;0.90;;;;;;;19.74;27.03;100596.06;1708112;84;21003;-77
2022/09/08 11:49:56;;;;;;;7.10;0.68;;;;;;;19.73;27.14;100592.55;1708461;83;21043;-76
2022/09/08 11:52:58;;;;;;;2.20;1.00;;;;;;;19.77;27.22;100588.83;1682343;84;21554;-79
2022/09/08 11:55:39;;;;;;;2.90;0.80;;;;;;;19.82;27.34;100588.39;1708295;84;21284;-76
2022/09/08 11:58:26;;;;;;;3.77;1.10;;;;;;;19.88;27.73;100587.13;1708002;83;21526;-76
2022/09/08 12:01:28;;;;;;;3.42;1.20;;;;;;;19.88;27.50;100585.24;1708334;84;21038;-79
2022/09/08 12:04:35;;;;;;;1.85;1.47;;;;;;;19.85;27.91;100577.60;1708844;84;21102;-77
2022/09/08 12:07:14;;;;;;;1.40;1.00;;;;;;;19.84;27.77;100583.55;1708759;84;21134;-76
2022/09/08 12:10:21;;;;;;;1.52;0.90;;;;;;;19.80;27.44;100587.00;1708471;84;21078;-76
2022/09/08 12:13:11;;;;;;;1.55;0.70;;;;;;;19.75;27.33;100578.25;1708469;83;21106;-78
2022/09/08 12:16:05;;;;;;;2.98;0.85;;;;;;;19.70;27.56;100576.77;1708798;84;21054;-78
2022/09/08 12:19:00;;;;;;;2.70;0.55;;;;;;;19.67;27.76;100573.76;1708414;84;21086;-76
2022/09/08 12:22:05;;;;;;;3.70;0.80;;;;;;;19.64;27.97;100577.20;1708555;84;21514;-74
2022/09/08 12:25:12;;;;;;;2.80;0.70;;;;;;;19.62;27.75;100575.28;1708467;84;20995;-78
2022/09/08 12:27:50;;;;;;;1.00;0.53;;;;;;;19.61;28.19;100577.71;1708797;84;21528;-78
2022/09/08 12:30:20;;;;;;;1.47;0.65;;;;;;;19.62;28.00;100580.69;1708442;84;21015;-75
2022/09/08 12:33:20;;;;;;;2.65;0.50;;;;;;;19.66;28.05;100586.44;1708691;84;21515;-76
2022/09/08 12:35:51;;;;;;;1.07;0.50;;;;;;;19.68;28.22;100587.55;1708483;84;21035;-74